Terminal Aerodrome Forecast
Issued by NWS

Home | Current Version | Previous Version | Text Only | Print | Product List | Glossary On
Versions: 1 2 3 4 5 6 7 8 9 10 11 12 13 14
000
FTAK31 PAFA 241127
TAFABT
TAF
PABT 241127Z 2412/2512 VRB04KT P6SM BKN019 OVC040
     FM241900 VRB04KT 4SM -SN BR BKN015 OVC025
     FM250700 VRB04KT P6SM SCT015 BKN025 OVC050=

USA.gov is the U.S. government's official web portal to all federal, state and local government web resources and services.